createdAt,value
2016-11-06T00:02:35.043Z,0
2016-11-06T00:07:39.137Z,0
2016-11-06T00:12:43.551Z,0
2016-11-06T00:17:47.978Z,0
2016-11-06T00:22:52.395Z,0
2016-11-06T00:27:56.492Z,0
2016-11-06T00:33:01.250Z,0
2016-11-06T00:38:05.672Z,0
2016-11-06T00:43:09.756Z,0
2016-11-06T00:48:14.176Z,0
2016-11-06T00:53:18.255Z,0
2016-11-06T00:58:23.019Z,0
2016-11-06T01:03:27.124Z,0
2016-11-06T01:08:31.875Z,0
2016-11-06T01:13:35.969Z,0
2016-11-06T01:18:40.061Z,0
2016-11-06T01:23:44.491Z,0
2016-11-06T01:28:48.567Z,0
2016-11-06T01:33:52.989Z,0
2016-11-06T01:38:57.074Z,0
2016-11-06T01:44:01.496Z,0
2016-11-06T01:49:05.585Z,0
2016-11-06T01:54:10.017Z,0
2016-11-06T01:59:14.437Z,0
2016-11-06T02:04:18.861Z,0
2016-11-06T02:09:23.290Z,0
2016-11-06T02:14:28.045Z,0
2016-11-06T02:19:32.135Z,0
2016-11-06T02:24:36.896Z,0
2016-11-06T02:29:40.987Z,0
2016-11-06T02:34:45.410Z,0
2016-11-06T02:39:50.163Z,0
2016-11-06T02:44:54.264Z,0
2016-11-06T02:49:58.687Z,0
2016-11-06T02:55:02.779Z,0
2016-11-06T03:00:06.869Z,0
2016-11-06T03:05:10.961Z,0
2016-11-06T03:10:15.052Z,0
2016-11-06T03:15:19.471Z,0
2016-11-06T03:20:23.890Z,0
2016-11-06T03:25:28.312Z,0
2016-11-06T03:30:32.737Z,0
2016-11-06T03:35:37.161Z,0
2016-11-06T03:40:41.248Z,0
2016-11-06T03:45:45.674Z,0
2016-11-06T03:50:49.762Z,0
2016-11-06T03:55:54.522Z,0
2016-11-06T04:00:58.953Z,0
2016-11-06T04:06:03.041Z,0
2016-11-06T04:11:07.463Z,0
2016-11-06T04:16:11.554Z,0
2016-11-06T04:21:15.645Z,0
2016-11-06T04:26:20.081Z,0
2016-11-06T04:31:24.836Z,0
2016-11-06T04:36:28.923Z,0
2016-11-06T04:41:33.340Z,0
2016-11-06T04:46:37.428Z,0
2016-11-06T04:51:41.524Z,0
2016-11-06T04:56:45.617Z,0
2016-11-06T05:01:49.705Z,0
2016-11-06T05:06:54.465Z,0
2016-11-06T05:11:58.901Z,0
2016-11-06T05:17:02.990Z,0
2016-11-06T05:22:07.414Z,0
2016-11-06T05:27:11.494Z,0
2016-11-06T05:32:15.924Z,0
2016-11-06T05:37:20.347Z,0
2016-11-06T05:42:24.449Z,0
2016-11-06T05:47:28.867Z,0
2016-11-06T05:52:33.627Z,0
2016-11-06T05:57:37.717Z,0
2016-11-06T06:02:41.799Z,1
2016-11-06T06:07:46.232Z,1
2016-11-06T06:12:50.658Z,2
2016-11-06T06:17:55.085Z,3
2016-11-06T06:22:59.842Z,7
2016-11-06T06:28:04.272Z,10
2016-11-06T06:33:08.345Z,13
2016-11-06T06:38:13.104Z,16
2016-11-06T06:43:17.525Z,22
2016-11-06T06:48:21.950Z,23
2016-11-06T06:53:26.034Z,28
2016-11-06T06:58:30.797Z,33
2016-11-06T07:03:34.891Z,47
2016-11-06T07:08:38.980Z,53
2016-11-06T07:13:43.070Z,59
2016-11-06T07:18:47.487Z,53
2016-11-06T07:23:51.921Z,114
2016-11-06T07:28:56.355Z,133
2016-11-06T07:34:00.781Z,129
2016-11-06T07:39:05.211Z,178
2016-11-06T07:44:09.828Z,287
2016-11-06T07:49:14.685Z,216
2016-11-06T07:54:19.200Z,223
2016-11-06T07:59:23.630Z,202
2016-11-06T08:04:27.723Z,188
2016-11-06T08:09:32.144Z,215
2016-11-06T08:14:36.574Z,226
2016-11-06T08:19:41.000Z,238
2016-11-06T08:24:45.436Z,240
2016-11-06T08:29:49.859Z,233
2016-11-06T08:34:53.955Z,222
2016-11-06T08:39:58.390Z,242
2016-11-06T08:45:02.826Z,196
2016-11-06T08:50:06.930Z,220
2016-11-06T08:55:11.065Z,241
2016-11-06T09:00:15.503Z,230
2016-11-06T09:05:19.950Z,264
2016-11-06T09:10:24.047Z,170
2016-11-06T09:15:28.159Z,141
2016-11-06T09:20:32.610Z,139
2016-11-06T09:25:37.058Z,145
2016-11-06T09:30:41.152Z,150
2016-11-06T09:35:45.594Z,192
2016-11-06T09:40:49.688Z,293
2016-11-06T09:45:54.125Z,370
2016-11-06T09:50:58.590Z,391
2016-11-06T09:56:03.041Z,392
2016-11-06T10:01:07.170Z,399
2016-11-06T10:06:11.282Z,303
2016-11-06T10:11:15.373Z,276
2016-11-06T10:16:20.036Z,389
2016-11-06T10:21:24.462Z,473
2016-11-06T10:26:28.570Z,382
2016-11-06T10:31:32.998Z,358
2016-11-06T10:36:37.102Z,333
2016-11-06T10:41:41.200Z,419
2016-11-06T10:46:45.303Z,423
2016-11-06T10:51:49.732Z,473
2016-11-06T10:56:53.834Z,451
2016-11-06T11:01:57.962Z,415
2016-11-06T11:07:02.388Z,417
2016-11-06T11:12:06.481Z,292
2016-11-06T11:17:10.605Z,263
2016-11-06T11:22:15.107Z,326
2016-11-06T11:27:19.217Z,277
2016-11-06T11:32:23.643Z,354
2016-11-06T11:37:28.406Z,455
2016-11-06T11:42:32.825Z,325
2016-11-06T11:47:36.921Z,274
2016-11-06T11:52:41.360Z,254
2016-11-06T11:57:45.454Z,263
2016-11-06T12:02:49.553Z,273
2016-11-06T12:07:53.975Z,232
2016-11-06T12:12:58.064Z,199
2016-11-06T12:18:02.523Z,138
2016-11-06T12:23:06.612Z,150
2016-11-06T12:28:11.040Z,168
2016-11-06T12:33:15.135Z,118
2016-11-06T12:38:19.257Z,92
2016-11-06T12:43:23.687Z,99
2016-11-06T12:48:27.776Z,134
2016-11-06T12:53:32.535Z,229
2016-11-06T12:58:36.669Z,249
2016-11-06T13:03:41.131Z,270
2016-11-06T13:08:45.654Z,323
2016-11-06T13:13:50.498Z,330
2016-11-06T13:18:54.607Z,348
2016-11-06T13:23:59.079Z,283
2016-11-06T13:29:03.168Z,217
2016-11-06T13:34:07.254Z,240
2016-11-06T13:39:11.359Z,237
2016-11-06T13:44:15.504Z,320
2016-11-06T13:49:19.934Z,351
2016-11-06T13:54:24.021Z,219
2016-11-06T13:59:28.332Z,160
2016-11-06T14:04:32.441Z,166
2016-11-06T14:09:36.531Z,152
2016-11-06T14:14:40.958Z,102
2016-11-06T14:19:45.061Z,68
2016-11-06T14:24:49.331Z,72
2016-11-06T14:29:53.757Z,65
2016-11-06T14:34:57.846Z,56
2016-11-06T14:40:02.269Z,50
2016-11-06T14:45:06.703Z,42
2016-11-06T14:50:11.466Z,34
2016-11-06T14:55:15.556Z,21
2016-11-06T15:00:19.995Z,17
2016-11-06T15:05:24.946Z,14
2016-11-06T15:10:29.058Z,12
2016-11-06T15:15:33.160Z,13
2016-11-06T15:20:37.946Z,16
2016-11-06T15:25:42.367Z,12
2016-11-06T15:30:46.458Z,12
2016-11-06T15:35:51.218Z,9
2016-11-06T15:40:55.636Z,6
2016-11-06T15:46:00.061Z,4
2016-11-06T15:51:04.503Z,2
2016-11-06T15:56:08.918Z,2
2016-11-06T16:01:13.344Z,1
2016-11-06T16:06:17.775Z,1
2016-11-06T16:11:22.196Z,1
2016-11-06T16:16:26.287Z,1
2016-11-06T16:21:30.633Z,1
2016-11-06T16:26:35.791Z,1
2016-11-06T16:31:39.881Z,1
2016-11-06T16:36:43.972Z,1
2016-11-06T16:41:48.403Z,1
2016-11-06T16:46:53.160Z,1
2016-11-06T16:51:57.262Z,1
2016-11-06T16:57:01.682Z,1
2016-11-06T17:02:06.116Z,1
2016-11-06T17:07:10.535Z,1
2016-11-06T17:12:14.620Z,2
2016-11-06T17:17:19.376Z,1
2016-11-06T17:22:23.465Z,1
2016-11-06T17:27:27.565Z,1
2016-11-06T17:32:31.994Z,1
2016-11-06T17:37:36.086Z,1
2016-11-06T17:42:40.453Z,1
2016-11-06T17:47:44.548Z,1
2016-11-06T17:52:48.648Z,1
2016-11-06T17:57:53.408Z,1
2016-11-06T18:02:58.494Z,1
2016-11-06T18:08:02.587Z,1
2016-11-06T18:13:06.862Z,1
2016-11-06T18:18:11.067Z,2
2016-11-06T18:23:15.533Z,2
2016-11-06T18:28:19.952Z,1
2016-11-06T18:33:24.042Z,1
2016-11-06T18:38:28.142Z,0
2016-11-06T18:43:32.559Z,1
2016-11-06T18:48:36.983Z,0
2016-11-06T18:53:41.403Z,0
2016-11-06T18:58:45.829Z,1
2016-11-06T19:03:50.251Z,1
2016-11-06T19:09:09.302Z,1
2016-11-06T19:14:14.089Z,0
2016-11-06T19:19:18.187Z,0
2016-11-06T19:24:22.613Z,0
2016-11-06T19:29:26.701Z,0
2016-11-06T19:34:30.788Z,0
2016-11-06T19:39:35.222Z,0
2016-11-06T19:44:39.649Z,0
2016-11-06T19:49:44.073Z,0
2016-11-06T19:54:48.503Z,0
2016-11-06T19:59:52.593Z,0
2016-11-06T20:04:56.687Z,0
2016-11-06T20:10:00.766Z,0
2016-11-06T20:15:05.187Z,0
2016-11-06T20:20:09.617Z,0
2016-11-06T20:25:14.045Z,0
2016-11-06T20:30:18.128Z,0
2016-11-06T20:35:22.224Z,0
2016-11-06T20:40:26.319Z,0
2016-11-06T20:45:32.037Z,0
2016-11-06T20:50:36.538Z,0
2016-11-06T20:55:40.626Z,0
2016-11-06T21:00:44.726Z,0
2016-11-06T21:05:49.158Z,0
2016-11-06T21:10:53.301Z,0
2016-11-06T21:15:57.757Z,0
2016-11-06T21:21:01.856Z,0
2016-11-06T21:26:06.991Z,0
2016-11-06T21:31:11.152Z,0
2016-11-06T21:36:15.255Z,0
2016-11-06T21:41:19.413Z,0
2016-11-06T21:46:23.601Z,0
2016-11-06T21:51:27.692Z,0
2016-11-06T21:56:31.781Z,0
2016-11-06T22:01:35.869Z,0
2016-11-06T22:06:39.955Z,0
2016-11-06T22:11:44.041Z,0
2016-11-06T22:16:48.131Z,0
2016-11-06T22:21:52.583Z,0
2016-11-06T22:26:57.020Z,0
2016-11-06T22:32:01.773Z,0
2016-11-06T22:37:06.194Z,0
2016-11-06T22:42:10.620Z,0
2016-11-06T22:47:15.046Z,0
2016-11-06T22:52:19.139Z,0
2016-11-06T22:57:23.897Z,0
2016-11-06T23:02:28.653Z,0
2016-11-06T23:07:33.074Z,0
2016-11-06T23:12:37.158Z,0
2016-11-06T23:17:41.248Z,0
2016-11-06T23:22:45.338Z,0
2016-11-06T23:27:50.091Z,0
2016-11-06T23:32:54.177Z,0
2016-11-06T23:37:58.265Z,0
2016-11-06T23:43:02.686Z,0
2016-11-06T23:48:07.119Z,0
2016-11-06T23:53:11.544Z,0
2016-11-06T23:58:16.641Z,0
